createdAt,value
2018-08-11T00:00:24.589Z,2.05
2018-08-11T00:01:27.951Z,2.02
2018-08-11T00:02:31.307Z,1.67
2018-08-11T00:03:34.611Z,2.27
2018-08-11T00:04:37.935Z,1.75
2018-08-11T00:05:41.290Z,2.02
2018-08-11T00:06:44.643Z,1.80
2018-08-11T00:07:48.504Z,1.90
2018-08-11T00:08:51.879Z,1.70
2018-08-11T00:09:55.200Z,2.17
2018-08-11T00:10:58.539Z,1.80
2018-08-11T00:12:01.903Z,2.00
2018-08-11T00:13:05.238Z,1.92
2018-08-11T00:14:08.609Z,1.60
2018-08-11T00:15:14.747Z,2.00
2018-08-11T00:16:18.083Z,2.20
2018-08-11T00:17:21.386Z,1.80
2018-08-11T00:18:24.722Z,1.60
2018-08-11T00:19:28.120Z,1.62
2018-08-11T00:20:31.467Z,1.60
2018-08-11T00:21:34.808Z,1.70
2018-08-11T00:22:38.713Z,1.80
2018-08-11T00:23:42.039Z,1.60
2018-08-11T00:24:45.376Z,2.05
2018-08-11T00:25:48.706Z,2.00
2018-08-11T00:26:52.043Z,2.25
2018-08-11T00:27:58.359Z,2.00
2018-08-11T00:29:01.699Z,1.85
2018-08-11T00:30:07.907Z,2.10
2018-08-11T00:31:11.230Z,1.70
2018-08-11T00:32:14.563Z,2.05
2018-08-11T00:33:17.918Z,1.60
2018-08-11T00:34:21.442Z,1.75
2018-08-11T00:35:24.795Z,2.08
2018-08-11T00:36:28.183Z,1.72
2018-08-11T00:37:31.518Z,1.70
2018-08-11T00:38:34.898Z,2.10
2018-08-11T00:39:38.238Z,1.80
2018-08-11T00:40:41.560Z,2.10
2018-08-11T00:41:44.911Z,2.65
2018-08-11T00:42:49.251Z,1.90
2018-08-11T00:43:52.600Z,2.25
2018-08-11T00:44:55.972Z,2.33
2018-08-11T00:45:59.356Z,2.20
2018-08-11T00:47:02.724Z,2.02
2018-08-11T00:48:06.211Z,1.90
2018-08-11T00:49:09.550Z,2.30
2018-08-11T00:50:16.670Z,2.05
2018-08-11T00:51:20.043Z,2.45
2018-08-11T00:52:23.406Z,2.37
2018-08-11T00:53:26.742Z,2.62
2018-08-11T00:54:30.062Z,2.37
2018-08-11T00:55:33.439Z,2.05
2018-08-11T00:56:36.754Z,1.95
2018-08-11T00:57:40.233Z,2.60
2018-08-11T00:58:43.586Z,1.92
2018-08-11T00:59:46.905Z,2.37
2018-08-11T01:00:50.274Z,1.92
2018-08-11T01:01:53.620Z,2.55
2018-08-11T01:03:03.451Z,2.27
2018-08-11T01:04:07.136Z,2.20
2018-08-11T01:05:12.864Z,1.90
2018-08-11T01:06:16.185Z,2.40
2018-08-11T01:07:19.484Z,1.65
2018-08-11T01:08:22.836Z,1.85
2018-08-11T01:09:26.214Z,2.42
2018-08-11T01:10:29.544Z,1.98
2018-08-11T01:11:32.875Z,1.80
2018-08-11T01:12:36.249Z,1.90
2018-08-11T01:13:39.593Z,2.05
2018-08-11T01:14:42.959Z,1.70
2018-08-11T01:15:46.267Z,2.08
2018-08-11T01:16:49.579Z,2.00
2018-08-11T01:17:53.168Z,2.05
2018-08-11T01:18:56.474Z,2.20
2018-08-11T01:19:59.846Z,1.80
2018-08-11T01:21:03.227Z,2.00
2018-08-11T01:22:06.627Z,1.92
2018-08-11T01:23:09.948Z,1.77
2018-08-11T01:24:13.295Z,1.55
2018-08-11T01:25:16.902Z,1.50
2018-08-11T01:26:20.236Z,1.95
2018-08-11T01:27:23.847Z,1.90
2018-08-11T01:28:27.171Z,1.80
2018-08-11T01:29:30.530Z,1.80
2018-08-11T01:30:33.919Z,1.50
2018-08-11T01:31:37.268Z,1.40
2018-08-11T01:32:40.592Z,1.65
2018-08-11T01:33:43.926Z,1.40
2018-08-11T01:34:47.279Z,1.40
2018-08-11T01:35:50.634Z,1.30
2018-08-11T01:36:53.958Z,1.45
2018-08-11T01:37:57.328Z,1.77
2018-08-11T01:39:00.641Z,1.22
2018-08-11T01:40:04.479Z,1.25
2018-08-11T01:41:07.847Z,1.32
2018-08-11T01:42:11.171Z,0.95
2018-08-11T01:43:14.530Z,1.40
2018-08-11T01:44:17.949Z,1.65
2018-08-11T01:45:21.254Z,1.30
2018-08-11T01:46:24.612Z,1.35
2018-08-11T01:47:27.986Z,1.30
2018-08-11T01:48:31.455Z,1.50
2018-08-11T01:49:34.824Z,1.40
2018-08-11T01:50:38.140Z,1.25
2018-08-11T01:51:41.459Z,1.80
2018-08-11T01:52:45.919Z,1.20
2018-08-11T01:53:49.316Z,1.17
2018-08-11T01:54:52.638Z,1.30
2018-08-11T01:55:55.962Z,1.20
2018-08-11T01:56:59.315Z,1.50
2018-08-11T01:58:02.708Z,1.25
2018-08-11T01:59:06.040Z,1.25
2018-08-11T02:00:11.583Z,1.32
2018-08-11T02:01:15.016Z,1.27
2018-08-11T02:02:18.339Z,1.02
2018-08-11T02:03:21.691Z,1.02
2018-08-11T02:04:25.042Z,1.30
2018-08-11T02:05:28.373Z,1.42
2018-08-11T02:06:31.747Z,1.10
2018-08-11T02:07:35.166Z,1.50
2018-08-11T02:08:38.487Z,1.20
2018-08-11T02:09:41.884Z,1.35
2018-08-11T02:10:45.225Z,1.70
2018-08-11T02:11:48.584Z,1.35
2018-08-11T02:12:51.951Z,1.25
2018-08-11T02:13:55.786Z,1.42
2018-08-11T02:14:59.116Z,1.30
2018-08-11T02:16:02.480Z,1.35
2018-08-11T02:17:06.232Z,1.20
2018-08-11T02:18:09.630Z,1.42
2018-08-11T02:19:12.965Z,1.20
2018-08-11T02:20:17.655Z,1.42
2018-08-11T02:21:20.994Z,1.27
2018-08-11T02:22:24.312Z,1.12
2018-08-11T02:23:27.674Z,1.15
2018-08-11T02:24:30.988Z,1.47
2018-08-11T02:25:34.306Z,1.65
2018-08-11T02:26:37.635Z,1.70
2018-08-11T02:27:41.026Z,1.40
2018-08-11T02:28:44.402Z,2.00
2018-08-11T02:29:47.719Z,1.52
2018-08-11T02:30:51.077Z,1.25
2018-08-11T02:31:54.407Z,1.55
2018-08-11T02:32:57.775Z,1.50
2018-08-11T02:34:01.151Z,1.47
2018-08-11T02:35:05.872Z,1.32
2018-08-11T02:36:09.239Z,1.70
2018-08-11T02:37:12.577Z,1.40
2018-08-11T02:38:15.949Z,1.60
2018-08-11T02:39:19.267Z,1.80
2018-08-11T02:40:22.615Z,1.72
2018-08-11T02:41:25.971Z,1.37
2018-08-11T02:42:29.297Z,1.57
2018-08-11T02:43:32.677Z,1.45
2018-08-11T02:44:36.012Z,1.80
2018-08-11T02:45:39.345Z,1.85
2018-08-11T02:46:42.659Z,1.70
2018-08-11T02:47:46.608Z,1.55
2018-08-11T02:48:50.079Z,1.60
2018-08-11T02:49:53.422Z,1.67
2018-08-11T02:50:56.747Z,1.70
2018-08-11T02:52:00.084Z,2.10
2018-08-11T02:53:03.419Z,1.80
2018-08-11T02:54:06.858Z,1.90
2018-08-11T02:55:10.619Z,1.70
2018-08-11T02:56:13.968Z,1.92
2018-08-11T02:57:17.284Z,1.77
2018-08-11T02:58:20.639Z,2.15
2018-08-11T02:59:24.827Z,2.05
2018-08-11T03:00:28.135Z,1.65
2018-08-11T03:01:31.961Z,1.50
2018-08-11T03:02:35.559Z,1.72
2018-08-11T03:03:38.830Z,1.70
2018-08-11T03:04:42.225Z,2.50
2018-08-11T03:05:45.568Z,1.67
2018-08-11T03:06:48.889Z,1.80
2018-08-11T03:07:52.221Z,2.08
2018-08-11T03:08:55.531Z,1.90
2018-08-11T03:09:58.875Z,1.87
2018-08-11T03:11:02.217Z,1.65
2018-08-11T03:12:05.562Z,1.75
2018-08-11T03:13:08.866Z,1.77
2018-08-11T03:14:12.200Z,1.60
2018-08-11T03:15:15.522Z,1.55
2018-08-11T03:16:19.114Z,1.80
2018-08-11T03:17:22.438Z,1.77
2018-08-11T03:18:25.754Z,1.67
2018-08-11T03:19:29.075Z,1.62
2018-08-11T03:20:32.379Z,1.40
2018-08-11T03:21:35.723Z,1.52
2018-08-11T03:22:39.086Z,1.47
2018-08-11T03:23:42.392Z,1.22
2018-08-11T03:24:45.694Z,1.22
2018-08-11T03:25:48.995Z,1.45
2018-08-11T03:26:52.335Z,1.50
2018-08-11T03:27:55.662Z,1.52
2018-08-11T03:28:58.969Z,1.40
2018-08-11T03:30:02.326Z,1.60
2018-08-11T03:31:05.718Z,1.47
2018-08-11T03:32:09.039Z,1.10
2018-08-11T03:33:12.373Z,1.20
2018-08-11T03:34:15.690Z,1.30
2018-08-11T03:35:19.011Z,1.45
2018-08-11T03:36:22.383Z,1.80
2018-08-11T03:37:25.703Z,1.50
2018-08-11T03:38:29.019Z,1.30
2018-08-11T03:39:32.367Z,1.20
2018-08-11T03:40:35.675Z,1.27
2018-08-11T03:41:39.048Z,1.27
2018-08-11T03:42:42.930Z,1.10
2018-08-11T03:43:46.251Z,1.10
2018-08-11T03:44:49.574Z,1.20
2018-08-11T03:45:52.881Z,1.70
2018-08-11T03:46:56.201Z,1.85
2018-08-11T03:47:59.560Z,1.75
2018-08-11T03:49:02.878Z,1.30
2018-08-11T03:50:06.796Z,1.52
2018-08-11T03:51:10.103Z,1.40
2018-08-11T03:52:13.430Z,1.65
2018-08-11T03:53:16.845Z,1.65
2018-08-11T03:54:20.151Z,1.62
2018-08-11T03:55:23.470Z,1.40
2018-08-11T03:56:26.846Z,1.52
2018-08-11T03:57:30.168Z,1.65
2018-08-11T03:58:33.542Z,1.35
2018-08-11T03:59:36.855Z,1.70
2018-08-11T04:00:40.219Z,1.30
2018-08-11T04:01:43.531Z,1.20
2018-08-11T04:02:46.833Z,1.40
2018-08-11T04:03:50.232Z,1.30
2018-08-11T04:04:53.543Z,1.25
2018-08-11T04:05:56.871Z,1.55
2018-08-11T04:07:00.242Z,1.35
2018-08-11T04:08:03.580Z,1.30
2018-08-11T04:09:08.033Z,1.30
2018-08-11T04:10:11.380Z,1.50
2018-08-11T04:11:14.728Z,1.30
2018-08-11T04:12:18.051Z,1.40
2018-08-11T04:13:21.417Z,1.25
2018-08-11T04:14:24.714Z,1.20
2018-08-11T04:15:28.084Z,1.35
2018-08-11T04:16:31.388Z,1.40
2018-08-11T04:17:41.498Z,1.30
2018-08-11T04:18:44.842Z,1.32
2018-08-11T04:19:48.151Z,1.07
2018-08-11T04:20:51.455Z,1.30
2018-08-11T04:21:54.819Z,1.10
2018-08-11T04:22:58.134Z,1.37
2018-08-11T04:24:01.450Z,1.27
2018-08-11T04:25:05.489Z,1.42
2018-08-11T04:26:08.804Z,1.50
2018-08-11T04:27:12.146Z,1.82
2018-08-11T04:28:15.458Z,1.70
2018-08-11T04:29:18.827Z,1.15
2018-08-11T04:30:22.148Z,1.45
2018-08-11T04:31:25.491Z,1.20
2018-08-11T04:32:28.842Z,1.25
2018-08-11T04:33:32.138Z,1.30
2018-08-11T04:34:35.466Z,1.25
2018-08-11T04:35:38.855Z,1.00
2018-08-11T04:36:42.146Z,1.40
2018-08-11T04:37:45.506Z,1.30
2018-08-11T04:38:48.812Z,1.40
2018-08-11T04:39:55.103Z,1.45
2018-08-11T04:40:58.407Z,1.40
2018-08-11T04:42:01.751Z,1.25
2018-08-11T04:43:05.246Z,1.20
2018-08-11T04:44:08.560Z,1.25
2018-08-11T04:45:11.907Z,1.30
2018-08-11T04:46:21.861Z,1.30
2018-08-11T04:47:25.165Z,1.00
2018-08-11T04:48:28.510Z,1.50
2018-08-11T04:49:31.822Z,1.10
2018-08-11T04:50:35.148Z,1.42
2018-08-11T04:51:38.512Z,1.35
2018-08-11T04:52:41.823Z,1.35
2018-08-11T04:53:45.179Z,1.50
2018-08-11T04:54:48.531Z,1.45
2018-08-11T04:55:51.848Z,1.50
2018-08-11T04:56:55.167Z,1.00
2018-08-11T04:57:58.492Z,1.30
2018-08-11T04:59:01.864Z,1.17
2018-08-11T05:00:06.082Z,1.12
2018-08-11T05:01:09.427Z,1.52
2018-08-11T05:02:12.791Z,1.30
2018-08-11T05:03:16.107Z,1.47
2018-08-11T05:04:19.483Z,1.60
2018-08-11T05:05:22.812Z,1.15
2018-08-11T05:06:26.142Z,1.40
2018-08-11T05:07:29.491Z,1.15
2018-08-11T05:08:32.851Z,1.20
2018-08-11T05:09:36.165Z,1.60
2018-08-11T05:10:39.490Z,1.40
2018-08-11T05:11:42.814Z,1.32
2018-08-11T05:12:46.122Z,1.75
2018-08-11T05:13:49.481Z,1.32
2018-08-11T05:14:52.796Z,1.37
2018-08-11T05:15:56.114Z,1.30
2018-08-11T05:16:59.444Z,1.30
2018-08-11T05:18:02.791Z,1.42
2018-08-11T05:19:06.275Z,1.30
2018-08-11T05:20:09.598Z,1.80
2018-08-11T05:21:12.918Z,1.22
2018-08-11T05:22:16.264Z,1.30
2018-08-11T05:23:19.651Z,1.60
2018-08-11T05:24:22.971Z,1.32
2018-08-11T05:25:26.300Z,1.20
2018-08-11T05:26:29.660Z,1.50
2018-08-11T05:27:32.991Z,1.40
2018-08-11T05:28:36.311Z,1.40
2018-08-11T05:29:40.274Z,1.35
2018-08-11T05:30:43.626Z,1.52
2018-08-11T05:31:46.999Z,1.40
2018-08-11T05:32:50.327Z,1.40
2018-08-11T05:33:53.736Z,2.20
2018-08-11T05:34:57.111Z,1.75
2018-08-11T05:36:00.488Z,1.40
2018-08-11T05:37:04.183Z,1.35
2018-08-11T05:38:07.508Z,1.40
2018-08-11T05:39:13.159Z,2.00
2018-08-11T05:40:16.507Z,1.10
2018-08-11T05:41:19.843Z,1.25
2018-08-11T05:42:23.189Z,1.90
2018-08-11T05:43:26.503Z,1.37
2018-08-11T05:44:29.813Z,1.30
2018-08-11T05:45:33.131Z,1.40
2018-08-11T05:46:36.663Z,1.47
2018-08-11T05:47:40.048Z,1.60
2018-08-11T05:48:43.368Z,1.32
2018-08-11T05:49:46.680Z,1.45
2018-08-11T05:50:49.982Z,1.80
2018-08-11T05:51:53.282Z,1.47
2018-08-11T05:52:56.612Z,1.50
2018-08-11T05:53:59.918Z,1.90
2018-08-11T05:55:03.314Z,1.52
2018-08-11T05:56:06.686Z,1.55
2018-08-11T05:57:10.013Z,1.95
2018-08-11T05:58:13.335Z,1.72
2018-08-11T05:59:16.644Z,2.00
2018-08-11T06:00:19.999Z,1.87
2018-08-11T06:01:23.335Z,1.70
2018-08-11T06:02:26.630Z,2.12
2018-08-11T06:03:29.942Z,1.35
2018-08-11T06:04:33.283Z,2.12
2018-08-11T06:05:36.627Z,1.67
2018-08-11T06:06:39.959Z,1.87
2018-08-11T06:07:43.275Z,1.60
2018-08-11T06:08:46.591Z,1.90
2018-08-11T06:09:49.889Z,2.25
2018-08-11T06:10:53.218Z,1.80
2018-08-11T06:11:56.527Z,1.90
2018-08-11T06:12:59.854Z,2.15
2018-08-11T06:14:03.309Z,1.98
2018-08-11T06:15:07.405Z,1.95
2018-08-11T06:16:10.722Z,2.10
2018-08-11T06:17:14.031Z,2.50
2018-08-11T06:18:17.360Z,1.90
2018-08-11T06:19:20.660Z,2.27
2018-08-11T06:20:23.991Z,2.60
2018-08-11T06:21:27.318Z,2.80
2018-08-11T06:22:30.639Z,2.52
2018-08-11T06:23:33.990Z,2.42
2018-08-11T06:24:37.300Z,2.85
2018-08-11T06:25:40.619Z,2.70
2018-08-11T06:26:43.947Z,2.35
2018-08-11T06:27:47.257Z,2.50
2018-08-11T06:28:50.563Z,2.90
2018-08-11T06:29:53.867Z,2.15
2018-08-11T06:30:57.185Z,2.70
2018-08-11T06:32:00.521Z,2.65
2018-08-11T06:33:03.962Z,2.62
2018-08-11T06:34:07.293Z,2.70
2018-08-11T06:35:10.595Z,2.30
2018-08-11T06:36:13.924Z,2.33
2018-08-11T06:37:17.237Z,2.00
2018-08-11T06:38:20.545Z,2.47
2018-08-11T06:39:23.864Z,1.85
2018-08-11T06:40:27.222Z,2.60
2018-08-11T06:41:30.559Z,1.92
2018-08-11T06:42:33.906Z,3.47
2018-08-11T06:43:37.229Z,2.62
2018-08-11T06:44:40.534Z,2.37
2018-08-11T06:45:43.847Z,2.50
2018-08-11T06:46:47.288Z,2.58
2018-08-11T06:47:50.894Z,2.20
2018-08-11T06:48:54.215Z,2.85
2018-08-11T06:49:57.556Z,2.37
2018-08-11T06:51:00.909Z,2.42
2018-08-11T06:52:04.806Z,2.80
2018-08-11T06:53:08.167Z,2.00
2018-08-11T06:54:12.023Z,2.35
2018-08-11T06:55:15.365Z,2.25
2018-08-11T06:56:18.698Z,1.90
2018-08-11T06:57:22.076Z,2.40
2018-08-11T06:58:25.390Z,2.20
2018-08-11T06:59:28.800Z,2.35
2018-08-11T07:00:32.124Z,2.30
2018-08-11T07:01:35.474Z,2.40
2018-08-11T07:02:39.000Z,2.05
2018-08-11T07:03:42.343Z,2.37
2018-08-11T07:04:45.671Z,2.85
2018-08-11T07:05:48.994Z,2.35
2018-08-11T07:06:52.356Z,2.20
2018-08-11T07:07:55.718Z,2.52
2018-08-11T07:08:59.043Z,2.40
2018-08-11T07:10:02.396Z,2.50
2018-08-11T07:11:05.707Z,2.35
2018-08-11T07:12:09.099Z,2.30
2018-08-11T07:13:12.446Z,2.15
2018-08-11T07:14:15.790Z,2.50
2018-08-11T07:15:19.132Z,2.35
2018-08-11T07:16:22.478Z,2.22
2018-08-11T07:17:25.883Z,1.95
2018-08-11T07:18:29.215Z,1.82
2018-08-11T07:19:32.535Z,1.90
2018-08-11T07:20:35.904Z,2.37
2018-08-11T07:21:39.252Z,2.20
2018-08-11T07:22:42.576Z,2.10
2018-08-11T07:23:45.923Z,2.25
2018-08-11T07:24:49.256Z,1.52
2018-08-11T07:25:52.622Z,1.60
2018-08-11T07:26:55.964Z,2.70
2018-08-11T07:28:00.228Z,1.72
2018-08-11T07:29:03.595Z,2.10
2018-08-11T07:30:06.976Z,1.85
2018-08-11T07:31:10.306Z,2.10
2018-08-11T07:32:13.661Z,1.30
2018-08-11T07:33:16.986Z,1.70
2018-08-11T07:34:20.371Z,2.05
2018-08-11T07:35:23.704Z,1.75
2018-08-11T07:36:27.221Z,1.20
2018-08-11T07:37:30.637Z,1.40
2018-08-11T07:38:33.993Z,1.42
2018-08-11T07:39:37.437Z,1.50
2018-08-11T07:40:40.798Z,1.27
2018-08-11T07:41:44.167Z,1.30
2018-08-11T07:42:47.499Z,1.72
2018-08-11T07:43:50.868Z,1.37
2018-08-11T07:44:54.192Z,1.20
2018-08-11T07:45:57.515Z,1.40
2018-08-11T07:47:00.840Z,1.32
2018-08-11T07:48:04.526Z,1.12
2018-08-11T07:49:08.211Z,1.42
2018-08-11T07:50:11.545Z,1.50
2018-08-11T07:51:14.910Z,1.10
2018-08-11T07:52:18.231Z,1.25
2018-08-11T07:53:21.581Z,1.22
2018-08-11T07:54:24.895Z,1.20
2018-08-11T07:55:28.340Z,1.40
2018-08-11T07:56:31.696Z,1.40
2018-08-11T07:57:35.011Z,1.30
2018-08-11T07:58:38.323Z,1.55
2018-08-11T07:59:41.640Z,1.35
2018-08-11T08:00:44.971Z,1.30
2018-08-11T08:01:48.341Z,1.35
2018-08-11T08:02:51.719Z,1.20
2018-08-11T08:03:55.077Z,1.62
2018-08-11T08:04:58.402Z,1.20
2018-08-11T08:06:01.742Z,1.47
2018-08-11T08:07:05.255Z,2.00
2018-08-11T08:08:08.713Z,1.25
2018-08-11T08:09:13.468Z,1.30
2018-08-11T08:10:16.842Z,1.20
2018-08-11T08:11:20.192Z,1.30
2018-08-11T08:12:23.514Z,1.30
2018-08-11T08:13:26.879Z,1.35
2018-08-11T08:14:30.231Z,1.10
2018-08-11T08:15:33.582Z,1.45
2018-08-11T08:16:37.022Z,1.20
2018-08-11T08:17:40.382Z,1.12
2018-08-11T08:18:43.755Z,1.17
2018-08-11T08:19:47.087Z,1.60
2018-08-11T08:20:50.403Z,1.45
2018-08-11T08:21:53.723Z,1.50
2018-08-11T08:22:57.099Z,1.60
2018-08-11T08:24:00.427Z,1.50
2018-08-11T08:25:04.219Z,1.35
2018-08-11T08:26:07.590Z,1.10
2018-08-11T08:27:10.904Z,1.60
2018-08-11T08:28:14.259Z,1.50
2018-08-11T08:29:17.610Z,1.17
2018-08-11T08:30:20.924Z,1.47
2018-08-11T08:31:24.239Z,1.32
2018-08-11T08:32:27.562Z,1.10
2018-08-11T08:33:30.934Z,1.37
2018-08-11T08:34:34.290Z,1.40
2018-08-11T08:35:37.610Z,1.10
2018-08-11T08:36:40.958Z,1.00
2018-08-11T08:37:44.280Z,1.30
2018-08-11T08:38:47.612Z,1.00
2018-08-11T08:39:50.956Z,1.57
2018-08-11T08:40:54.338Z,1.60
2018-08-11T08:41:57.712Z,1.12
2018-08-11T08:43:00.982Z,1.12
2018-08-11T08:44:04.448Z,1.00
2018-08-11T08:45:09.210Z,1.25
2018-08-11T08:46:12.538Z,1.20
2018-08-11T08:47:15.847Z,1.17
2018-08-11T08:48:19.202Z,1.20
2018-08-11T08:49:22.528Z,1.10
2018-08-11T08:50:25.868Z,1.30
2018-08-11T08:51:29.218Z,1.47
2018-08-11T08:52:32.543Z,1.35
2018-08-11T08:53:35.899Z,1.25
2018-08-11T08:54:39.270Z,1.30
2018-08-11T08:55:43.559Z,1.20
2018-08-11T08:56:46.874Z,1.20
2018-08-11T08:57:50.291Z,1.50
2018-08-11T08:58:53.834Z,1.37
2018-08-11T08:59:57.209Z,1.30
2018-08-11T09:01:00.587Z,1.20
2018-08-11T09:02:03.967Z,1.20
2018-08-11T09:03:07.322Z,1.20
2018-08-11T09:04:10.730Z,1.30
2018-08-11T09:05:14.038Z,1.72
2018-08-11T09:06:17.399Z,1.25
2018-08-11T09:07:20.723Z,1.20
2018-08-11T09:08:24.048Z,1.00
2018-08-11T09:09:27.411Z,1.20
2018-08-11T09:10:30.734Z,1.80
2018-08-11T09:11:34.075Z,1.20
2018-08-11T09:12:37.463Z,1.22
2018-08-11T09:13:40.786Z,1.22
2018-08-11T09:14:44.201Z,1.25
2018-08-11T09:15:47.562Z,1.20
2018-08-11T09:16:50.918Z,1.20
2018-08-11T09:17:54.362Z,1.25
2018-08-11T09:18:57.750Z,1.25
2018-08-11T09:20:01.153Z,1.22
2018-08-11T09:21:04.508Z,1.35
2018-08-11T09:22:07.830Z,1.40
2018-08-11T09:23:11.207Z,1.10
2018-08-11T09:24:14.524Z,1.10
2018-08-11T09:25:17.905Z,1.40
2018-08-11T09:26:21.214Z,1.22
2018-08-11T09:27:24.526Z,1.85
2018-08-11T09:28:27.863Z,1.15
2018-08-11T09:29:31.198Z,1.20
2018-08-11T09:30:34.567Z,0.98
2018-08-11T09:31:37.891Z,1.12
2018-08-11T09:32:41.208Z,1.30
2018-08-11T09:33:44.528Z,1.25
2018-08-11T09:34:47.848Z,1.50
2018-08-11T09:35:51.471Z,1.22
2018-08-11T09:36:54.815Z,1.10
2018-08-11T09:37:58.132Z,1.20
2018-08-11T09:39:01.465Z,1.47
2018-08-11T09:40:05.397Z,1.40
2018-08-11T09:41:09.171Z,0.95
2018-08-11T09:42:12.506Z,1.15
2018-08-11T09:43:15.859Z,1.25
2018-08-11T09:44:19.168Z,1.50
2018-08-11T09:45:22.488Z,1.10
2018-08-11T09:46:25.970Z,1.27
2018-08-11T09:47:29.299Z,1.32
2018-08-11T09:48:32.614Z,1.50
2018-08-11T09:49:35.919Z,2.02
2018-08-11T09:50:39.227Z,1.35
2018-08-11T09:51:42.602Z,1.37
2018-08-11T09:52:45.915Z,1.50
2018-08-11T09:53:49.219Z,1.62
2018-08-11T09:54:52.510Z,1.67
2018-08-11T09:55:55.921Z,1.60
2018-08-11T09:56:59.269Z,1.50
2018-08-11T09:58:02.605Z,1.45
2018-08-11T09:59:05.914Z,1.55
2018-08-11T10:00:09.844Z,1.30
2018-08-11T10:01:18.627Z,1.57
2018-08-11T10:02:22.658Z,1.50
2018-08-11T10:03:26.440Z,1.45
2018-08-11T10:04:29.781Z,1.70
2018-08-11T10:05:33.131Z,1.35
2018-08-11T10:06:36.480Z,1.40
2018-08-11T10:07:39.803Z,1.55
2018-08-11T10:08:43.140Z,1.65
2018-08-11T10:09:46.457Z,1.40
2018-08-11T10:10:49.810Z,1.40
2018-08-11T10:11:53.134Z,1.50
2018-08-11T10:12:56.451Z,1.67
2018-08-11T10:13:59.780Z,1.90
2018-08-11T10:15:03.138Z,1.40
2018-08-11T10:16:06.502Z,1.32
2018-08-11T10:17:09.860Z,1.35
2018-08-11T10:18:13.193Z,2.27
2018-08-11T10:19:16.506Z,1.77
2018-08-11T10:20:19.827Z,1.82
2018-08-11T10:21:23.214Z,1.40
2018-08-11T10:22:26.535Z,1.50
2018-08-11T10:23:29.976Z,1.40
2018-08-11T10:24:33.287Z,1.50
2018-08-11T10:25:36.647Z,1.52
2018-08-11T10:26:39.987Z,1.45
2018-08-11T10:27:43.383Z,1.60
2018-08-11T10:28:46.738Z,1.50
2018-08-11T10:29:50.050Z,1.60
2018-08-11T10:30:53.367Z,1.87
2018-08-11T10:31:56.705Z,1.70
2018-08-11T10:33:00.011Z,1.42
2018-08-11T10:34:03.394Z,1.52
2018-08-11T10:35:06.741Z,1.90
2018-08-11T10:36:10.047Z,1.72
2018-08-11T10:37:13.466Z,2.10
2018-08-11T10:38:17.042Z,1.85
2018-08-11T10:39:20.385Z,2.15
2018-08-11T10:40:23.812Z,1.70
2018-08-11T10:41:27.131Z,1.75
2018-08-11T10:42:30.565Z,1.57
2018-08-11T10:43:33.899Z,1.40
2018-08-11T10:44:37.215Z,1.20
2018-08-11T10:45:40.543Z,1.85
2018-08-11T10:46:43.883Z,1.75
2018-08-11T10:47:47.473Z,1.80
2018-08-11T10:48:50.805Z,1.60
2018-08-11T10:49:54.147Z,1.50
2018-08-11T10:50:58.446Z,1.97
2018-08-11T10:52:01.757Z,1.67
2018-08-11T10:53:06.075Z,1.93
2018-08-11T10:54:09.456Z,1.60
2018-08-11T10:55:12.785Z,1.40
2018-08-11T10:56:16.107Z,1.80
2018-08-11T10:57:19.435Z,1.63
2018-08-11T10:58:22.903Z,1.40
2018-08-11T10:59:26.354Z,1.60
2018-08-11T11:00:29.752Z,1.70
2018-08-11T11:01:33.075Z,1.77
2018-08-11T11:02:37.389Z,1.70
2018-08-11T11:03:40.730Z,1.40
2018-08-11T11:04:44.084Z,1.90
2018-08-11T11:05:47.456Z,1.63
2018-08-11T11:06:50.848Z,1.50
2018-08-11T11:07:54.194Z,1.73
2018-08-11T11:08:57.506Z,1.50
2018-08-11T11:10:00.851Z,2.10
2018-08-11T11:11:04.212Z,1.37
2018-08-11T11:12:07.696Z,1.60
2018-08-11T11:13:11.004Z,1.57
2018-08-11T11:14:14.383Z,1.50
2018-08-11T11:15:17.670Z,1.77
2018-08-11T11:16:21.035Z,1.53
2018-08-11T11:17:30.862Z,1.53
2018-08-11T11:18:34.269Z,1.70
2018-08-11T11:19:37.792Z,2.17
2018-08-11T11:20:41.159Z,1.50
2018-08-11T11:21:44.515Z,1.50
2018-08-11T11:22:47.959Z,1.23
2018-08-11T11:23:51.290Z,1.30
2018-08-11T11:24:54.647Z,1.25
2018-08-11T11:25:57.986Z,1.40
2018-08-11T11:27:01.306Z,1.30
2018-08-11T11:28:04.635Z,1.40
2018-08-11T11:29:07.956Z,1.60
2018-08-11T11:30:11.328Z,1.35
2018-08-11T11:31:14.653Z,1.40
2018-08-11T11:32:18.025Z,1.80
2018-08-11T11:33:21.351Z,2.00
2018-08-11T11:34:24.705Z,1.47
2018-08-11T11:35:28.054Z,1.50
2018-08-11T11:36:31.412Z,1.50
2018-08-11T11:37:34.766Z,2.00
2018-08-11T11:38:38.094Z,1.50
2018-08-11T11:39:41.398Z,1.73
2018-08-11T11:40:44.722Z,1.90
2018-08-11T11:41:48.035Z,1.60
2018-08-11T11:42:51.404Z,1.77
2018-08-11T11:43:54.751Z,1.80
2018-08-11T11:44:58.066Z,1.87
2018-08-11T11:46:01.371Z,1.77
2018-08-11T11:47:04.902Z,1.70
2018-08-11T11:48:08.252Z,1.97
2018-08-11T11:49:11.570Z,1.73
2018-08-11T11:50:14.874Z,1.83
2018-08-11T11:51:18.225Z,2.00
2018-08-11T11:52:21.535Z,1.63
2018-08-11T11:53:24.851Z,1.60
2018-08-11T11:54:28.158Z,1.90
2018-08-11T11:55:31.472Z,1.80
2018-08-11T11:56:34.845Z,1.70
2018-08-11T11:57:38.154Z,1.77
2018-08-11T11:58:41.448Z,1.67
2018-08-11T11:59:44.811Z,1.60
2018-08-11T12:00:48.103Z,1.40
2018-08-11T12:01:51.447Z,2.00
2018-08-11T12:02:54.815Z,1.73
2018-08-11T12:03:58.191Z,1.70
2018-08-11T12:05:01.518Z,1.63
2018-08-11T12:06:04.854Z,2.03
2018-08-11T12:07:08.172Z,2.30
2018-08-11T12:08:11.544Z,1.70
2018-08-11T12:09:14.862Z,1.50
2018-08-11T12:10:18.182Z,1.40
2018-08-11T12:11:21.509Z,1.80
2018-08-11T12:12:24.830Z,1.80
2018-08-11T12:13:28.202Z,2.00
2018-08-11T12:14:31.519Z,1.60
2018-08-11T12:15:34.835Z,2.10
2018-08-11T12:16:38.405Z,2.23
2018-08-11T12:17:41.755Z,2.27
2018-08-11T12:18:45.117Z,2.20
2018-08-11T12:19:48.447Z,2.20
2018-08-11T12:20:51.773Z,1.80
2018-08-11T12:21:55.095Z,2.37
2018-08-11T12:22:58.454Z,2.30
2018-08-11T12:24:01.894Z,1.93
2018-08-11T12:25:05.529Z,2.27
2018-08-11T12:26:08.875Z,1.70
2018-08-11T12:27:12.196Z,2.17
2018-08-11T12:28:15.528Z,2.30
2018-08-11T12:29:18.863Z,2.00
2018-08-11T12:30:22.430Z,2.30
2018-08-11T12:31:26.025Z,2.30
2018-08-11T12:32:29.356Z,2.10
2018-08-11T12:33:32.687Z,2.70
2018-08-11T12:34:36.028Z,2.20
2018-08-11T12:35:39.395Z,2.27
2018-08-11T12:36:42.715Z,1.50
2018-08-11T12:37:49.134Z,1.50
2018-08-11T12:38:52.418Z,1.60
2018-08-11T12:39:55.728Z,1.60
2018-08-11T12:40:59.079Z,1.70
2018-08-11T12:42:02.400Z,1.90
2018-08-11T12:43:05.739Z,2.10
2018-08-11T12:44:09.381Z,1.93
2018-08-11T12:45:12.788Z,1.90
2018-08-11T12:46:16.302Z,2.20
2018-08-11T12:47:19.643Z,2.10
2018-08-11T12:48:22.962Z,2.00
2018-08-11T12:49:26.281Z,2.17
2018-08-11T12:50:29.595Z,1.80
2018-08-11T12:51:32.954Z,1.97
2018-08-11T12:52:36.323Z,2.00
2018-08-11T12:53:39.720Z,1.60
2018-08-11T12:54:43.275Z,2.50
2018-08-11T12:55:46.845Z,1.90
2018-08-11T12:56:50.355Z,2.00
2018-08-11T12:57:53.723Z,1.83
2018-08-11T12:58:57.152Z,1.83
2018-08-11T13:00:00.464Z,2.17
2018-08-11T13:01:03.816Z,1.90
2018-08-11T13:02:07.166Z,1.83
2018-08-11T13:03:10.492Z,1.50
2018-08-11T13:04:13.811Z,1.63
2018-08-11T13:05:17.123Z,1.70
2018-08-11T13:06:20.494Z,1.90
2018-08-11T13:07:23.818Z,1.60
2018-08-11T13:08:27.231Z,1.57
2018-08-11T13:09:30.563Z,1.90
2018-08-11T13:10:33.986Z,2.10
2018-08-11T13:11:37.347Z,1.90
2018-08-11T13:12:40.656Z,2.27
2018-08-11T13:13:44.095Z,2.40
2018-08-11T13:14:47.473Z,2.00
2018-08-11T13:15:50.919Z,1.63
2018-08-11T13:16:54.303Z,2.37
2018-08-11T13:17:57.603Z,2.10
2018-08-11T13:19:00.903Z,2.20
2018-08-11T13:20:05.036Z,2.30
2018-08-11T13:21:08.368Z,1.93
2018-08-11T13:22:11.712Z,2.30
2018-08-11T13:23:15.023Z,2.10
2018-08-11T13:24:18.338Z,1.80
2018-08-11T13:25:21.682Z,2.00
2018-08-11T13:26:25.016Z,2.20
2018-08-11T13:27:28.334Z,2.10
2018-08-11T13:28:31.675Z,1.50
2018-08-11T13:29:35.048Z,2.20
2018-08-11T13:30:38.374Z,2.37
2018-08-11T13:31:41.703Z,2.10
2018-08-11T13:32:45.098Z,2.00
2018-08-11T13:33:48.416Z,1.70
2018-08-11T13:34:51.758Z,2.27
2018-08-11T13:35:55.129Z,1.83
2018-08-11T13:36:59.274Z,1.90
2018-08-11T13:38:02.636Z,1.90
2018-08-11T13:39:07.998Z,1.87
2018-08-11T13:40:11.458Z,1.90
2018-08-11T13:41:14.771Z,2.30
2018-08-11T13:42:18.155Z,1.90
2018-08-11T13:43:21.471Z,1.97
2018-08-11T13:44:24.815Z,1.70
2018-08-11T13:45:28.199Z,1.97
2018-08-11T13:46:31.527Z,1.70
2018-08-11T13:47:34.848Z,1.77
2018-08-11T13:48:38.166Z,1.73
2018-08-11T13:49:41.561Z,1.80
2018-08-11T13:50:44.969Z,2.30
2018-08-11T13:51:48.331Z,1.67
2018-08-11T13:52:51.651Z,2.10
2018-08-11T13:53:55.002Z,1.90
2018-08-11T13:54:58.422Z,2.40
2018-08-11T13:56:01.816Z,1.90
2018-08-11T13:57:05.263Z,1.50
2018-08-11T13:58:08.606Z,2.00
2018-08-11T13:59:11.974Z,1.80
2018-08-11T14:00:15.318Z,1.90
2018-08-11T14:01:18.711Z,1.67
2018-08-11T14:02:22.023Z,2.20
2018-08-11T14:03:25.367Z,2.40
2018-08-11T14:04:28.752Z,1.50